Time;durP1;ratioP1;P1;durP2;ratioP2;P2;SDS_P1;SDS_P2;PMS_P1;PMS_P2;Temp;Humidity;BMP_temperature;BMP_pressure;BME280_temperature;BME280_humidity;BME280_pressure;Samples;Min_cycle;Max_cycle;Signal;HPM_P1;HPM_P2
2023/01/28 00:08:43;;;;;;;0.60;0.60;;;;;;;5.48;53.65;100554.38;18305781;32;20367;-60
2023/01/28 00:18:47;;;;;;;1.25;1.25;;;;;;;5.63;53.46;100571.06;18305718;32;20089;-60
2023/01/28 00:28:51;;;;;;;0.60;0.60;;;;;;;5.58;53.02;100572.69;18305625;32;20361;-60
2023/01/28 00:38:56;;;;;;;0.50;0.50;;;;;;;5.47;53.31;100581.09;18306095;32;20101;-60
2023/01/28 00:49:00;;;;;;;0.50;0.50;;;;;;;5.37;53.76;100584.34;18306063;32;20148;-60
2023/01/28 00:59:04;;;;;;;5.03;1.92;;;;;;;5.44;53.88;100583.63;18304685;32;20371;-60
2023/01/28 01:09:11;;;;;;;0.55;0.55;;;;;;;5.61;53.89;100586.59;18304426;32;20108;-60
2023/01/28 01:19:14;;;;;;;2.08;1.98;;;;;;;5.69;53.56;100586.75;18304227;32;20445;-60
2023/01/28 01:29:18;;;;;;;3.05;1.73;;;;;;;5.56;53.91;100590.78;18302982;32;20177;-60
2023/01/28 01:39:22;;;;;;;0.80;0.80;;;;;;;5.54;54.70;100592.47;18303375;32;20146;-60
2023/01/28 01:49:27;;;;;;;0.60;0.60;;;;;;;5.56;54.71;100590.78;18303823;32;20137;-60
2023/01/28 01:59:33;;;;;;;0.90;0.90;;;;;;;5.54;55.05;100588.16;18302051;32;20115;-60
2023/01/28 02:09:37;;;;;;;1.00;1.00;;;;;;;5.50;55.48;100603.59;18301691;32;20090;-60
2023/01/28 02:19:44;;;;;;;1.37;1.33;;;;;;;5.40;56.48;100599.94;18300501;32;20172;-60
2023/01/28 02:29:54;;;;;;;0.70;0.70;;;;;;;5.50;56.01;100601.00;18300725;32;20147;-60
2023/01/28 02:40:00;;;;;;;1.00;0.80;;;;;;;5.50;56.31;100580.28;18303141;32;20093;-60
2023/01/28 02:50:06;;;;;;;0.98;0.82;;;;;;;5.47;56.83;100585.41;18308519;32;20093;-60
2023/01/28 03:00:12;;;;;;;0.80;0.80;;;;;;;5.52;56.37;100588.97;18308187;32;20137;-60
2023/01/28 03:10:20;;;;;;;0.75;0.75;;;;;;;5.49;56.83;100588.88;18308188;32;20093;-60
2023/01/28 03:41:12;;;;;;;0.80;0.80;;;;;;;5.54;56.46;100587.28;18306856;32;20117;-60
2023/01/28 03:51:17;;;;;;;0.60;0.60;;;;;;;5.51;56.63;100595.00;18303669;32;76645;-60
2023/01/28 04:01:20;;;;;;;0.60;0.60;;;;;;;5.45;57.16;100593.13;18306165;32;20386;-60
2023/01/28 04:11:25;;;;;;;0.70;0.70;;;;;;;5.38;57.06;100597.31;18306114;32;20082;-60
2023/01/28 04:21:29;;;;;;;0.50;0.50;;;;;;;5.39;57.78;100609.41;18305850;32;20102;-60
2023/01/28 04:31:34;;;;;;;0.40;0.40;;;;;;;5.17;58.84;100608.06;18305606;32;20102;-60
2023/01/28 04:41:37;;;;;;;1.23;1.23;;;;;;;5.23;58.60;100609.91;18305381;32;20123;-60
2023/01/28 04:51:42;;;;;;;0.70;0.70;;;;;;;5.20;58.90;100615.88;18304830;32;20121;-60
2023/01/28 05:01:45;;;;;;;1.52;1.50;;;;;;;5.28;58.83;100623.81;18304095;32;20434;-60
2023/01/28 05:11:50;;;;;;;1.30;1.17;;;;;;;5.19;59.00;100631.38;18305684;32;20146;-60
2023/01/28 05:21:53;;;;;;;0.70;0.70;;;;;;;5.26;58.95;100641.03;18303975;32;20413;-60
2023/01/28 05:31:57;;;;;;;0.93;0.93;;;;;;;5.22;59.01;100644.41;18303875;32;20098;-60
2023/01/28 05:42:01;;;;;;;1.83;1.70;;;;;;;5.20;59.45;100643.47;18302697;32;20147;-60
2023/01/28 05:52:05;;;;;;;0.75;0.75;;;;;;;5.20;59.91;100659.00;18302480;32;20121;-60
2023/01/28 06:02:08;;;;;;;2.70;2.50;;;;;;;5.23;59.51;100659.09;18302116;32;20105;-60
2023/01/28 06:12:13;;;;;;;3.58;1.87;;;;;;;5.09;60.45;100669.12;18302732;32;20188;-60
2023/01/28 06:22:16;;;;;;;0.70;0.70;;;;;;;5.17;59.61;100683.12;18309487;32;20115;-60
2023/01/28 06:32:21;;;;;;;1.35;1.27;;;;;;;5.25;59.36;100688.47;18309053;32;20085;-60
2023/01/28 06:42:24;;;;;;;0.70;0.70;;;;;;;5.09;59.90;100701.03;18308575;32;20097;-60
2023/01/28 06:52:29;;;;;;;0.60;0.60;;;;;;;4.97;59.40;100724.00;18297439;32;20126;-60
2023/01/28 07:02:32;;;;;;;1.55;1.45;;;;;;;5.17;59.83;100723.62;18308263;32;20107;-60
2023/01/28 07:12:37;;;;;;;1.52;1.48;;;;;;;5.13;60.47;100736.50;18295358;32;20136;-60
2023/01/28 07:22:44;;;;;;;1.05;1.05;;;;;;;4.91;61.44;100748.00;18297394;32;20112;-60
2023/01/28 07:32:53;;;;;;;6.85;4.85;;;;;;;5.13;60.91;100759.81;18307344;32;20093;-60
2023/01/28 07:42:56;;;;;;;1.52;1.17;;;;;;;5.23;60.62;100765.22;18306748;32;20081;-60
2023/01/28 07:53:03;;;;;;;0.70;0.70;;;;;;;5.21;59.90;100765.16;18306347;32;20102;-60
2023/01/28 08:03:08;;;;;;;2.25;2.15;;;;;;;5.38;58.92;100759.56;18306564;32;20427;-60
2023/01/28 08:13:13;;;;;;;0.57;0.57;;;;;;;5.57;57.76;100779.00;18306174;32;20371;-60
2023/01/28 08:23:18;;;;;;;1.00;1.00;;;;;;;5.68;57.97;100787.03;18305487;32;20632;-60
2023/01/28 08:33:24;;;;;;;0.80;0.80;;;;;;;5.73;58.07;100790.59;18303853;32;20086;-60
2023/01/28 08:43:27;;;;;;;4.68;1.17;;;;;;;5.79;57.46;100793.34;18306876;32;20097;-60
2023/01/28 08:53:32;;;;;;;0.77;0.77;;;;;;;5.80;56.35;100804.59;18304950;32;20101;-60
2023/01/28 09:03:35;;;;;;;0.57;0.57;;;;;;;5.99;56.43;100799.84;18304520;32;20122;-60
2023/01/28 09:13:40;;;;;;;0.80;0.80;;;;;;;6.14;54.44;100794.16;18304350;32;20097;-60
2023/01/28 09:23:44;;;;;;;0.57;0.57;;;;;;;6.23;53.62;100807.34;18304026;32;20098;-60
2023/01/28 09:33:53;;;;;;;0.80;0.80;;;;;;;6.37;53.09;100816.28;18303366;32;20094;-60
2023/01/28 09:44:06;;;;;;;0.60;0.60;;;;;;;6.61;52.95;100820.25;18303299;32;20095;-60
2023/01/28 09:54:18;;;;;;;0.90;0.90;;;;;;;6.88;51.84;100823.34;18301849;32;20461;-60
2023/01/28 10:04:30;;;;;;;1.08;1.02;;;;;;;7.16;50.89;100818.69;18267902;32;20105;-60
2023/01/28 10:14:38;;;;;;;;;;;;;;;7.21;50.41;100812.75;18238610;32;20086;-60
2023/01/28 10:24:44;;;;;;;1.83;1.67;;;;;;;7.28;50.79;100810.25;18237995;32;20048;-60
2023/01/28 10:34:48;;;;;;;1.02;1.00;;;;;;;7.29;51.09;100809.41;18238288;32;20113;-60
2023/01/28 10:44:51;;;;;;;0.75;0.75;;;;;;;7.49;50.28;100808.03;18236358;32;20172;-60
2023/01/28 10:55:05;;;;;;;1.20;1.12;;;;;;;7.49;50.61;100807.16;18258482;32;20166;-60
2023/01/28 11:05:16;;;;;;;0.60;0.60;;;;;;;7.58;49.33;100809.91;18339965;32;20120;-60
2023/01/28 11:15:21;;;;;;;1.62;1.50;;;;;;;7.44;49.10;100811.41;18372292;32;20111;-60
2023/01/28 11:25:29;;;;;;;0.57;0.57;;;;;;;7.45;48.62;100807.97;18371063;32;20488;-60
2023/01/28 11:35:33;;;;;;;0.70;0.70;;;;;;;7.80;48.94;100802.47;18370770;32;20123;-60
2023/01/28 11:45:44;;;;;;;0.65;0.65;;;;;;;7.65;48.83;100790.13;18370516;32;20085;-60
2023/01/28 11:56:01;;;;;;;18.57;2.20;;;;;;;8.01;48.28;100790.66;18370021;32;20167;-60
2023/01/28 12:06:18;;;;;;;3.30;1.05;;;;;;;8.01;48.22;100790.66;18370329;32;20176;-60
2023/01/28 12:16:31;;;;;;;0.60;0.60;;;;;;;8.01;52.10;100786.31;18369445;32;20093;-60
2023/01/28 12:26:40;;;;;;;1.70;1.60;;;;;;;8.29;47.81;100778.03;18370179;32;20085;-60
2023/01/28 12:36:52;;;;;;;1.65;1.33;;;;;;;8.05;48.52;100779.44;18369463;32;20104;-60
2023/01/28 12:46:58;;;;;;;0.82;0.82;;;;;;;7.73;49.09;100772.91;18369017;32;20435;-60
2023/01/28 12:57:03;;;;;;;0.50;0.50;;;;;;;7.94;48.95;100776.69;18341121;32;20121;-60
2023/01/28 13:07:10;;;;;;;1.00;0.98;;;;;;;7.96;48.94;100784.50;18305345;32;20122;-60
2023/01/28 13:17:26;;;;;;;0.80;0.80;;;;;;;8.28;47.65;100791.91;18321350;32;20171;-60
2023/01/28 13:27:29;;;;;;;1.10;1.10;;;;;;;8.23;47.77;100790.94;18366511;32;20362;-60
2023/01/28 13:37:37;;;;;;;1.02;1.02;;;;;;;8.05;47.51;100803.72;18307662;32;20108;-60
2023/01/28 13:47:44;;;;;;;0.50;0.50;;;;;;;8.23;47.75;100819.56;18303331;32;20106;-60
2023/01/28 13:58:27;;;;;;;0.52;0.52;;;;;;;8.05;46.55;100831.44;18303044;32;20105;-60
2023/01/28 14:08:39;;;;;;;;;;;;;;;8.08;47.20;100843.59;18299522;32;20826;-60
2023/01/28 14:18:44;;;;;;;0.70;0.70;;;;;;;8.13;47.25;100839.38;18301353;32;20004;-60
2023/01/28 14:28:53;;;;;;;0.60;0.60;;;;;;;8.18;47.29;100845.50;18301736;32;20119;-60
2023/01/28 14:38:58;;;;;;;0.70;0.70;;;;;;;8.13;47.32;100849.78;18306588;32;20103;-60
2023/01/28 14:49:17;;;;;;;0.80;0.80;;;;;;;8.17;48.19;100856.75;18308653;32;20101;-60
2023/01/28 14:59:24;;;;;;;0.70;0.70;;;;;;;8.11;47.98;100864.44;18339143;32;20165;-60
2023/01/28 15:09:27;;;;;;;0.60;0.60;;;;;;;8.07;48.04;100873.97;18331512;32;20177;-61
2023/01/28 15:19:35;;;;;;;0.57;0.57;;;;;;;7.89;49.58;100885.81;18306742;32;20137;-60
2023/01/28 15:29:38;;;;;;;0.60;0.60;;;;;;;7.97;50.01;100883.31;18308489;32;20426;-60
2023/01/28 15:39:42;;;;;;;0.70;0.70;;;;;;;7.68;51.21;100894.09;18306444;32;20145;-60
2023/01/28 15:49:48;;;;;;;0.70;0.70;;;;;;;7.52;52.04;100911.13;18305840;32;20102;-60
2023/01/28 16:00:04;;;;;;;3.40;1.80;;;;;;;7.35;52.02;100919.47;18304540;32;20113;-61
2023/01/28 16:10:20;;;;;;;0.60;0.60;;;;;;;7.25;51.92;100927.03;18301197;32;20094;-59
2023/01/28 16:20:26;;;;;;;1.08;1.05;;;;;;;7.21;52.26;100941.72;18302815;32;20137;-58
2023/01/28 16:30:30;;;;;;;2.95;1.67;;;;;;;7.05;52.66;100956.97;18322409;32;20101;-58
2023/01/28 16:40:35;;;;;;;7.22;6.30;;;;;;;6.98;52.80;100967.19;18300760;32;20095;-59
2023/01/28 16:50:39;;;;;;;0.80;0.80;;;;;;;6.94;53.25;100974.03;18299022;32;20156;-59
2023/01/28 17:00:43;;;;;;;1.77;1.70;;;;;;;6.86;53.80;100975.59;18299972;32;20125;-59
2023/01/28 17:10:52;;;;;;;0.75;0.75;;;;;;;6.71;54.14;100971.78;18299637;32;20093;-59
2023/01/28 17:21:02;;;;;;;0.85;0.85;;;;;;;6.72;54.25;100989.09;18301530;32;20113;-59
2023/01/28 17:31:06;;;;;;;1.00;1.00;;;;;;;6.72;54.50;100990.84;18308039;32;20098;-59
2023/01/28 17:41:12;;;;;;;0.70;0.70;;;;;;;6.67;55.02;101006.31;18298871;32;20133;-59
2023/01/28 17:51:17;;;;;;;0.70;0.70;;;;;;;6.69;54.78;101020.19;18293114;32;20093;-58
2023/01/28 18:01:23;;;;;;;2.08;1.98;;;;;;;6.62;54.92;101018.28;18271777;32;20141;-58
2023/01/28 18:11:27;;;;;;;0.90;0.82;;;;;;;6.53;55.54;101029.31;18303363;32;20108;-58
2023/01/28 18:21:34;;;;;;;0.77;0.77;;;;;;;6.51;56.00;101037.03;18305002;32;20136;-60
2023/01/28 18:31:55;;;;;;;0.80;0.80;;;;;;;6.53;55.36;101048.34;18245380;32;20109;-58
2023/01/28 18:42:00;;;;;;;1.30;1.20;;;;;;;6.42;55.58;101049.78;18279387;32;20718;-59
2023/01/28 18:52:03;;;;;;;0.70;0.70;;;;;;;6.34;55.99;101066.84;18307611;32;20098;-58
2023/01/28 19:02:09;;;;;;;2.05;1.95;;;;;;;6.16;56.71;101070.72;18308355;32;20431;-58
2023/01/28 19:12:12;;;;;;;0.75;0.75;;;;;;;6.09;56.38;101082.66;18304297;32;20109;-58
2023/01/28 19:22:18;;;;;;;0.90;0.90;;;;;;;5.94;57.13;101085.66;18303613;32;20138;-58
2023/01/28 19:32:21;;;;;;;1.77;1.62;;;;;;;6.01;56.72;101085.84;18304019;32;20101;-58
2023/01/28 19:42:25;;;;;;;6.62;4.95;;;;;;;5.74;58.12;101100.66;18306638;32;20101;-58
2023/01/28 19:52:30;;;;;;;1.50;1.42;;;;;;;5.67;58.29;101111.69;18306360;32;20136;-58
2023/01/28 20:02:35;;;;;;;1.85;1.27;;;;;;;5.59;58.36;101115.75;18303187;32;20458;-58
2023/01/28 20:12:38;;;;;;;0.60;0.60;;;;;;;5.48;58.86;101130.94;18303679;32;20120;-59
2023/01/28 20:22:43;;;;;;;1.05;1.05;;;;;;;5.33;59.16;101142.59;18300269;32;20116;-58
2023/01/28 20:32:46;;;;;;;2.12;2.03;;;;;;;5.22;60.18;101138.81;18302211;32;20180;-58
2023/01/28 20:42:51;;;;;;;0.73;0.73;;;;;;;4.91;60.20;101146.44;18304238;32;20115;-58
2023/01/28 20:52:54;;;;;;;0.60;0.60;;;;;;;5.27;59.63;101145.00;18299366;32;20478;-58
2023/01/28 21:02:59;;;;;;;1.37;1.33;;;;;;;5.39;59.45;101163.50;18304135;32;20093;-58
2023/01/28 21:13:03;;;;;;;0.98;0.95;;;;;;;5.30;59.73;101173.56;18305072;32;20089;-58
2023/01/28 21:23:13;;;;;;;0.95;0.90;;;;;;;5.22;60.18;101185.41;18301100;32;20101;-58
2023/01/28 21:33:16;;;;;;;1.25;1.15;;;;;;;5.14;60.85;101186.03;18303230;32;20117;-58
2023/01/28 21:43:21;;;;;;;0.60;0.60;;;;;;;5.42;59.91;101198.97;18299489;32;20104;-58
2023/01/28 21:53:24;;;;;;;4.85;1.80;;;;;;;5.35;60.16;101190.13;18301842;32;20120;-58
2023/01/28 22:03:31;;;;;;;1.15;1.15;;;;;;;5.23;60.06;101189.75;18301467;32;20139;-58
2023/01/28 22:13:35;;;;;;;1.00;1.00;;;;;;;5.00;60.93;101200.22;18301992;32;20150;-58
2023/01/28 22:23:40;;;;;;;0.80;0.80;;;;;;;4.95;60.71;101194.00;18301121;32;20117;-58
2023/01/28 22:33:43;;;;;;;2.35;1.17;;;;;;;4.97;60.53;101205.28;18300159;32;20122;-58
2023/01/28 22:43:48;;;;;;;0.60;0.60;;;;;;;4.86;61.21;101213.56;18301115;32;20169;-58
2023/01/28 22:53:51;;;;;;;0.60;0.60;;;;;;;4.92;61.07;101219.75;18300153;32;20163;-59
2023/01/28 23:03:56;;;;;;;1.98;1.87;;;;;;;4.74;61.99;101230.37;18308374;32;20397;-58
2023/01/28 23:24:23;;;;;;;0.93;0.93;;;;;;;5.03;61.23;101221.03;18307831;32;20143;-58
2023/01/28 23:34:30;;;;;;;0.70;0.70;;;;;;;4.95;61.35;101231.09;18307335;32;20125;-58
2023/01/28 23:44:35;;;;;;;5.15;3.80;;;;;;;4.71;62.03;101228.53;18307597;32;20104;-59
2023/01/28 23:54:38;;;;;;;1.62;1.52;;;;;;;4.65;61.54;101228.34;18315130;32;20167;-58
